Time;durP1;ratioP1;P1;durP2;ratioP2;P2;SDS_P1;SDS_P2;PMS_P1;PMS_P2;Temp;Humidity;BMP_temperature;BMP_pressure;BME280_temperature;BME280_humidity;BME280_pressure;Samples;Min_cycle;Max_cycle;Signal;HPM_P1;HPM_P2
2022/07/15 00:02:21;;;;;;;6.32;2.92;;;;;;;;;;5096426;28;20058;-81
2022/07/15 00:04:46;;;;;;;5.78;3.03;;;21.40;99.90;;;;;;5112627;28;20503;-81
2022/07/15 00:07:13;;;;;;;15.90;4.65;;;21.30;99.90;;;;;;5113581;28;20024;-80
2022/07/15 00:12:23;;;;;;;10.70;3.38;;;21.30;99.90;;;;;;5112632;28;20474;-79
2022/07/15 00:14:49;;;;;;;6.50;2.78;;;21.20;99.90;;;;;;5113360;28;20024;-80
2022/07/15 00:17:15;;;;;;;6.10;2.85;;;21.20;99.90;;;;;;5113583;28;20024;-81
2022/07/15 00:19:41;;;;;;;7.35;2.95;;;21.20;99.90;;;;;;5112397;28;20032;-81
2022/07/15 00:22:07;;;;;;;8.75;3.38;;;21.10;99.90;;;;;;5112689;28;20031;-81
2022/07/15 00:24:33;;;;;;;6.05;3.05;;;21.10;99.90;;;;;;5113510;28;20028;-81
2022/07/15 00:26:59;;;;;;;6.65;3.05;;;21.00;99.90;;;;;;5113120;28;20028;-77
2022/07/15 00:29:25;;;;;;;6.32;3.15;;;21.00;99.90;;;;;;5112688;28;20022;-80
2022/07/15 00:31:52;;;;;;;8.85;3.33;;;20.90;99.90;;;;;;5094836;28;20032;-81
2022/07/15 00:34:18;;;;;;;5.20;2.70;;;;;;;;;;5098602;28;20393;-81
2022/07/15 00:36:44;;;;;;;9.35;3.60;;;20.90;99.90;;;;;;5117075;28;20048;-81
2022/07/15 00:39:10;;;;;;;10.18;2.70;;;20.80;99.90;;;;;;5097828;28;20039;-81
2022/07/15 00:41:42;;;;;;;12.20;4.10;;;20.70;99.90;;;;;;5097618;28;20040;-81
2022/07/15 00:44:08;;;;;;;13.77;4.85;;;20.60;99.90;;;;;;5097785;28;20233;-81
2022/07/15 00:46:36;;;;;;;6.30;2.80;;;20.70;99.90;;;;;;5098544;28;20385;-81
2022/07/15 00:49:04;;;;;;;5.18;3.28;;;20.70;99.90;;;;;;5098214;28;20027;-81
2022/07/15 00:51:37;;;;;;;9.65;3.50;;;20.60;99.90;;;;;;5116174;28;20446;-80
2022/07/15 00:54:05;;;;;;;13.38;4.65;;;20.60;99.90;;;;;;5116100;28;20419;-81
2022/07/15 00:56:36;;;;;;;11.35;4.65;;;20.60;99.90;;;;;;5097698;28;20165;-80
2022/07/15 00:59:05;;;;;;;9.57;4.70;;;20.60;99.90;;;;;;5115623;27;20154;-79
2022/07/15 01:01:31;;;;;;;8.75;4.70;;;20.50;99.90;;;;;;5128341;27;20050;-81
2022/07/15 01:03:59;;;;;;;14.95;5.10;;;20.60;99.90;;;;;;5100992;27;20123;-76
2022/07/15 01:06:26;;;;;;;9.88;4.78;;;20.50;99.90;;;;;;5113903;28;20032;-81
2022/07/15 01:08:52;;;;;;;12.48;4.78;;;20.40;99.90;;;;;;5097164;28;20024;-81
2022/07/15 01:11:18;;;;;;;11.38;5.78;;;20.40;99.90;;;;;;5097375;28;20022;-75
2022/07/15 01:13:44;;;;;;;12.80;5.13;;;20.30;99.90;;;;;;5115409;28;20026;-79
2022/07/15 01:16:10;;;;;;;11.52;5.28;;;20.20;99.90;;;;;;5100758;27;20467;-80
2022/07/15 01:18:36;;;;;;;14.55;6.10;;;20.20;99.90;;;;;;5100174;28;20119;-77
2022/07/15 01:21:02;;;;;;;21.15;11.20;;;20.10;99.90;;;;;;5115433;28;20420;-81
2022/07/15 01:23:28;;;;;;;22.13;14.15;;;20.10;99.90;;;;;;5095478;28;20054;-70
2022/07/15 01:26:11;;;;;;;28.30;12.75;;;20.10;99.90;;;;;;5105885;28;20461;-81
2022/07/15 01:28:39;;;;;;;89.07;65.22;;;20.10;99.90;;;;;;5113683;28;20157;-79
2022/07/15 01:31:06;;;;;;;84.18;62.55;;;20.10;99.90;;;;;;5079535;28;20020;-81
2022/07/15 01:33:35;;;;;;;84.72;63.90;;;20.00;99.90;;;;;;5095338;28;20039;-80
2022/07/15 01:36:02;;;;;;;67.13;45.78;;;20.10;99.90;;;;;;5113125;28;20109;-81
2022/07/15 01:38:30;;;;;;;53.17;39.72;;;20.00;99.90;;;;;;5078072;28;20359;-71
2022/07/15 01:41:00;;;;;;;47.92;32.28;;;19.90;99.90;;;;;;5095767;28;20019;-81
2022/07/15 01:43:26;;;;;;;36.17;25.45;;;19.90;99.90;;;;;;5097286;28;20456;-81
2022/07/15 01:45:52;;;;;;;34.35;21.52;;;19.90;99.90;;;;;;5095068;28;20030;-80
2022/07/15 01:51:32;;;;;;;40.03;25.63;;;19.70;99.90;;;;;;5111621;28;20036;-73
2022/07/15 01:53:57;;;;;;;36.20;21.60;;;19.80;99.90;;;;;;5094771;28;20031;-70
2022/07/15 01:56:23;;;;;;;40.15;22.00;;;19.80;99.90;;;;;;5095034;28;20023;-70
2022/07/15 01:58:49;;;;;;;35.92;21.50;;;19.70;99.90;;;;;;5077424;28;20115;-80
2022/07/15 02:01:17;;;;;;;32.25;21.00;;;19.70;99.90;;;;;;5094284;28;20040;-81
2022/07/15 02:03:44;;;;;;;34.25;20.95;;;19.70;99.90;;;;;;5094938;28;20060;-81
2022/07/15 02:06:10;;;;;;;37.10;24.05;;;19.80;99.90;;;;;;5077600;28;20019;-80
2022/07/15 02:08:36;;;;;;;42.10;24.38;;;19.80;99.90;;;;;;5077793;28;20118;-74
2022/07/15 02:11:04;;;;;;;40.95;24.63;;;19.80;99.90;;;;;;5095281;28;20333;-79
2022/07/15 02:13:30;;;;;;;41.75;22.75;;;19.80;99.90;;;;;;5113863;28;20525;-80
2022/07/15 02:15:58;;;;;;;34.03;22.45;;;19.80;99.90;;;;;;5094254;28;20055;-77
2022/07/15 02:18:24;;;;;;;32.75;21.23;;;19.80;99.90;;;;;;5112976;28;20051;-81
2022/07/15 02:20:50;;;;;;;36.95;24.38;;;19.70;99.90;;;;;;5094603;28;20027;-76
2022/07/15 02:23:16;;;;;;;51.38;28.70;;;19.70;99.90;;;;;;5113144;28;20035;-81
2022/07/15 02:25:42;;;;;;;55.47;30.80;;;19.70;99.90;;;;;;5094481;28;20020;-80
2022/07/15 02:28:08;;;;;;;52.70;31.48;;;19.80;99.90;;;;;;5094212;28;20059;-71
2022/07/15 02:30:40;;;;;;;63.28;34.17;;;19.80;99.90;;;;;;5094579;28;20374;-81
2022/07/15 02:33:09;;;;;;;53.35;31.48;;;19.80;99.90;;;;;;5109482;28;20063;-79
2022/07/15 02:35:36;;;;;;;55.97;29.83;;;19.70;99.90;;;;;;5112330;28;20027;-78
2022/07/15 02:38:03;;;;;;;46.38;26.58;;;19.80;99.90;;;;;;5094030;28;20024;-77
2022/07/15 02:40:31;;;;;;;32.33;21.05;;;19.70;99.90;;;;;;5077017;28;20035;-80
2022/07/15 02:42:59;;;;;;;32.63;18.15;;;19.70;99.90;;;;;;5094189;28;20494;-79
2022/07/15 02:45:28;;;;;;;35.13;17.95;;;19.70;99.90;;;;;;5110476;28;20027;-80
2022/07/15 02:47:56;;;;;;;35.17;17.88;;;19.70;99.90;;;;;;5094309;28;20028;-72
2022/07/15 02:50:28;;;;;;;35.25;20.88;;;19.70;99.90;;;;;;5093749;28;20039;-80
2022/07/15 02:52:54;;;;;;;32.85;16.17;;;19.60;99.90;;;;;;5112268;28;20100;-80
2022/07/15 02:55:20;;;;;;;28.48;15.95;;;19.60;99.90;;;;;;5092912;28;20480;-77
2022/07/15 02:57:46;;;;;;;33.30;17.35;;;19.70;99.90;;;;;;5112094;28;20031;-81
2022/07/15 03:00:14;;;;;;;39.03;14.85;;;19.60;99.90;;;;;;5111947;28;20083;-81
2022/07/15 03:02:41;;;;;;;22.83;12.25;;;19.50;99.90;;;;;;5076317;28;20137;-74
2022/07/15 03:05:09;;;;;;;20.50;11.55;;;19.50;99.90;;;;;;5093557;28;20034;-81
2022/07/15 03:07:36;;;;;;;24.02;11.23;;;19.40;99.90;;;;;;5093507;28;20020;-81
2022/07/15 03:10:03;;;;;;;19.40;9.57;;;19.30;99.90;;;;;;5078172;28;20072;-78
2022/07/15 03:12:30;;;;;;;17.00;9.57;;;19.40;99.90;;;;;;5076314;28;20433;-66
2022/07/15 03:14:58;;;;;;;12.57;7.70;;;19.30;99.90;;;;;;5106676;28;20027;-80
2022/07/15 03:17:25;;;;;;;18.48;10.10;;;19.40;99.90;;;;;;5093827;28;20023;-81
2022/07/15 03:19:50;;;;;;;22.23;10.50;;;19.40;99.90;;;;;;5093217;28;20020;-72
2022/07/15 03:22:17;;;;;;;41.80;10.73;;;19.40;99.90;;;;;;5092757;28;20444;-77
2022/07/15 03:24:43;;;;;;;25.38;10.52;;;19.40;99.90;;;;;;5092867;28;20092;-81
2022/07/15 03:27:10;;;;;;;26.05;8.65;;;19.40;99.90;;;;;;5093261;28;20030;-81
2022/07/15 03:29:36;;;;;;;32.83;10.23;;;19.50;99.90;;;;;;5076842;28;20020;-73
2022/07/15 03:32:03;;;;;;;17.25;7.43;;;19.50;99.90;;;;;;5076967;28;20016;-82
2022/07/15 03:34:28;;;;;;;21.02;7.88;;;19.40;99.90;;;;;;5110993;28;20024;-77
2022/07/15 03:36:54;;;;;;;19.42;7.63;;;19.40;99.90;;;;;;5076121;28;20073;-81
2022/07/15 03:39:21;;;;;;;10.25;5.82;;;19.40;99.90;;;;;;5091809;28;20032;-75
2022/07/15 03:41:47;;;;;;;9.63;5.07;;;19.10;99.90;;;;;;5107704;28;20024;-81
2022/07/15 03:44:13;;;;;;;13.55;5.18;;;19.20;99.90;;;;;;5111178;28;20509;-69
2022/07/15 03:46:40;;;;;;;11.35;5.05;;;19.30;99.90;;;;;;5108285;28;20015;-79
2022/07/15 03:49:06;;;;;;;12.30;6.45;;;19.30;99.90;;;;;;5096150;28;20031;-78
2022/07/15 03:51:33;;;;;;;16.75;6.18;;;19.70;99.90;;;;;;5095059;28;20084;-78
2022/07/15 03:54:00;;;;;;;10.80;5.60;;;20.80;99.90;;;;;;5110992;28;20102;-79
2022/07/15 03:56:27;;;;;;;14.10;5.35;;;21.80;99.90;;;;;;5091715;28;20173;-74
2022/07/15 03:58:54;;;;;;;10.38;4.95;;;22.50;99.90;;;;;;5110434;28;20035;-78
2022/07/15 04:01:21;;;;;;;15.82;5.85;;;23.30;99.90;;;;;;5109898;28;20046;-76
2022/07/15 04:03:48;;;;;;;14.35;5.72;;;24.10;99.20;;;;;;5095801;28;20043;-77
2022/07/15 04:06:15;;;;;;;10.30;5.15;;;25.00;96.80;;;;;;5095144;28;20028;-63
2022/07/15 04:08:41;;;;;;;13.82;5.75;;;25.50;93.00;;;;;;5098562;28;20032;-80
2022/07/15 04:11:07;;;;;;;10.57;5.57;;;26.30;91.30;;;;;;5116693;28;20489;-81
2022/07/15 04:13:33;;;;;;;7.57;5.13;;;26.50;88.70;;;;;;5098603;28;20058;-81
2022/07/15 04:15:59;;;;;;;10.40;5.38;;;26.90;88.10;;;;;;5116953;28;20024;-80
2022/07/15 04:18:25;;;;;;;10.40;6.03;;;27.60;83.90;;;;;;5108639;28;20028;-80
2022/07/15 04:20:51;;;;;;;10.48;6.40;;;27.90;80.70;;;;;;5091094;28;20024;-79
2022/07/15 04:23:17;;;;;;;11.88;5.72;;;28.20;90.00;;;;;;5092614;28;20040;-80
2022/07/15 04:25:45;;;;;;;14.10;6.95;;;28.70;82.70;;;;;;5099003;28;20027;-80
2022/07/15 04:28:14;;;;;;;10.20;6.43;;;29.40;77.70;;;;;;5093407;28;20087;-71
2022/07/15 04:30:40;;;;;;;14.13;6.18;;;29.50;77.60;;;;;;5098564;28;20693;-80
2022/07/15 04:33:08;;;;;;;13.95;6.07;;;29.60;74.40;;;;;;5097467;28;20059;-79
2022/07/15 04:35:38;;;;;;;11.60;5.97;;;30.10;75.20;;;;;;5096263;28;20027;-79
2022/07/15 04:38:06;;;;;;;15.55;5.90;;;30.50;72.10;;;;;;5097147;28;20039;-79
2022/07/15 04:40:33;;;;;;;11.98;4.65;;;30.80;72.00;;;;;;5098030;28;20023;-79
2022/07/15 04:43:03;;;;;;;16.20;5.60;;;31.40;76.10;;;;;;5093632;28;20039;-80
2022/07/15 04:45:29;;;;;;;9.75;5.28;;;31.70;70.90;;;;;;5088657;28;20366;-79
2022/07/15 04:47:56;;;;;;;16.33;5.45;;;;;;;;;;5093293;28;20495;-80
2022/07/15 04:50:46;;;;;;;17.70;5.80;;;;;;;;;;5096995;27;20493;-80
2022/07/15 04:53:12;;;;;;;11.43;4.65;;;33.20;87.10;;;;;;5092199;28;20024;-80
2022/07/15 04:55:38;;;;;;;10.45;5.15;;;33.20;89.10;;;;;;5096991;28;20055;-79
2022/07/15 04:58:05;;;;;;;14.38;4.90;;;32.70;92.50;;;;;;5093055;28;20028;-79
2022/07/15 05:00:32;;;;;;;11.73;3.90;;;32.00;71.20;;;;;;5108826;28;20047;-79
2022/07/15 05:02:58;;;;;;;8.50;3.70;;;32.10;68.90;;;;;;5092564;28;20048;-80
2022/07/15 05:05:26;;;;;;;15.45;4.13;;;29.80;70.70;;;;;;5080707;28;20039;-72
2022/07/15 05:07:52;;;;;;;10.32;4.00;;;;;;;;;;5078864;28;20028;-79
2022/07/15 05:10:19;;;;;;;12.10;4.90;;;;;;;;;;5096940;28;20027;-76
2022/07/15 05:12:51;;;;;;;14.57;5.63;;;26.30;76.50;;;;;;5094673;28;20042;-79
2022/07/15 05:15:17;;;;;;;12.27;5.43;;;26.10;78.60;;;;;;5089578;28;20114;-79
2022/07/15 05:17:44;;;;;;;12.18;5.78;;;25.90;81.20;;;;;;5082132;28;20078;-79
2022/07/15 05:20:16;;;;;;;13.93;5.15;;;26.10;82.20;;;;;;5093926;28;20093;-76
2022/07/15 05:22:42;;;;;;;12.75;4.55;;;25.70;99.90;;;;;;5095999;28;20081;-76
2022/07/15 05:25:08;;;;;;;13.77;4.95;;;;;;;;;;5079466;28;20032;-77
2022/07/15 05:27:34;;;;;;;7.10;3.45;;;25.70;85.50;;;;;;5096619;28;20489;-78
2022/07/15 05:30:01;;;;;;;9.45;3.60;;;25.60;83.60;;;;;;5113237;28;20450;-78
2022/07/15 05:32:30;;;;;;;15.02;4.13;;;25.60;82.30;;;;;;5096451;28;20027;-78
2022/07/15 05:35:01;;;;;;;8.18;3.38;;;25.90;86.00;;;;;;5094866;28;20032;-78
2022/07/15 05:37:27;;;;;;;36.63;4.68;;;26.30;88.40;;;;;;5094654;28;20024;-78
2022/07/15 05:39:53;;;;;;;9.27;4.22;;;26.50;78.70;;;;;;5113954;28;20177;-79
2022/07/15 05:42:25;;;;;;;;;;;26.10;80.60;;;;;;5095999;28;20362;-79
2022/07/15 05:44:52;;;;;;;14.93;4.07;;;26.20;94.20;;;;;;5102597;28;19907;-79
2022/07/15 05:47:18;;;;;;;8.07;3.25;;;25.90;82.10;;;;;;5104277;28;20519;-79
2022/07/15 05:49:46;;;;;;;10.32;3.85;;;26.20;86.20;;;;;;5088328;28;20028;-79
2022/07/15 05:52:12;;;;;;;13.52;3.55;;;26.30;87.90;;;;;;5078848;28;20028;-76
2022/07/15 05:54:38;;;;;;;8.27;2.90;;;25.40;78.00;;;;;;5107595;28;20691;-79
2022/07/15 05:57:08;;;;;;;9.85;2.53;;;25.40;76.80;;;;;;5092987;28;20351;-79
2022/07/15 05:59:34;;;;;;;4.45;2.53;;;25.40;76.70;;;;;;5111512;28;20023;-78
2022/07/15 06:02:00;;;;;;;10.93;2.70;;;26.00;77.10;;;;;;5096336;28;20135;-79
2022/07/15 06:04:29;;;;;;;8.05;2.83;;;;;;;;;;5089590;28;20126;-77
2022/07/15 06:06:56;;;;;;;3.47;2.17;;;26.90;96.60;;;;;;5093394;28;20051;-78
2022/07/15 06:09:22;;;;;;;2.72;2.10;;;27.00;92.20;;;;;;5095993;27;20425;-79
2022/07/15 06:11:48;;;;;;;4.13;2.45;;;27.30;82.00;;;;;;5112874;28;20050;-78
2022/07/15 06:14:15;;;;;;;3.85;2.45;;;29.00;72.70;;;;;;5093670;28;20063;-80
2022/07/15 06:16:41;;;;;;;4.85;1.90;;;27.00;88.80;;;;;;5057733;28;20064;-78
2022/07/15 06:19:10;;;;;;;8.75;2.65;;;27.00;86.60;;;;;;5034853;28;20487;-80
2022/07/15 06:21:37;;;;;;;8.32;2.75;;;;;;;;;;5053298;28;20120;-81
2022/07/15 06:24:03;;;;;;;3.72;1.67;;;27.50;72.20;;;;;;5036223;28;20119;-80
2022/07/15 06:26:29;;;;;;;3.42;1.63;;;27.50;71.10;;;;;;5052759;28;20543;-78
2022/07/15 06:28:55;;;;;;;7.55;2.90;;;27.50;70.30;;;;;;5053382;28;20021;-81
2022/07/15 06:31:21;;;;;;;6.63;2.33;;;;;;;;;;5053184;28;20418;-80
2022/07/15 06:33:47;;;;;;;2.45;1.70;;;27.90;72.60;;;;;;5054297;28;20025;-80
2022/07/15 06:36:13;;;;;;;9.77;2.83;;;28.00;71.40;;;;;;5052647;28;20039;-77
2022/07/15 06:38:42;;;;;;;5.20;2.40;;;28.10;72.50;;;;;;5033929;28;20027;-79
2022/07/15 06:41:08;;;;;;;5.22;2.20;;;28.10;70.00;;;;;;5027027;28;20036;-79
2022/07/15 06:43:34;;;;;;;4.35;2.45;;;28.40;92.40;;;;;;5030243;28;20040;-81
2022/07/15 06:46:11;;;;;;;4.80;2.17;;;;;;;;;;5026768;28;20021;-79
2022/07/15 06:48:39;;;;;;;3.88;2.22;;;29.20;95.40;;;;;;5032513;28;20394;-75
2022/07/15 06:51:06;;;;;;;5.50;2.55;;;29.10;88.60;;;;;;5047069;28;20021;-79
2022/07/15 06:53:32;;;;;;;4.43;2.58;;;28.80;86.00;;;;;;5028495;28;20029;-78
2022/07/15 06:55:58;;;;;;;8.25;2.53;;;29.10;82.40;;;;;;5039720;28;20399;-78
2022/07/15 06:58:24;;;;;;;11.65;2.67;;;;;;;;;;5067390;28;20360;-80
2022/07/15 07:00:50;;;;;;;6.18;2.45;;;29.20;75.50;;;;;;5034020;28;20028;-79
2022/07/15 07:03:16;;;;;;;4.72;2.42;;;28.90;77.10;;;;;;5029130;28;20048;-80
2022/07/15 07:05:42;;;;;;;3.55;2.40;;;28.80;75.80;;;;;;5032463;28;20041;-77
2022/07/15 07:08:08;;;;;;;3.80;2.40;;;29.10;75.20;;;;;;5051622;28;20056;-80
2022/07/15 07:10:35;;;;;;;6.57;2.80;;;;;;;;;;5026951;28;20182;-78
2022/07/15 07:13:02;;;;;;;5.15;2.30;;;29.70;83.00;;;;;;5027987;28;20056;-79
2022/07/15 07:15:27;;;;;;;3.65;2.25;;;29.80;78.50;;;;;;5050765;28;20103;-75
2022/07/15 07:17:54;;;;;;;6.75;2.40;;;29.90;69.60;;;;;;5051184;28;20021;-73
2022/07/15 07:20:20;;;;;;;10.38;3.25;;;;;;;;;;5048182;28;20116;-72
2022/07/15 07:22:46;;;;;;;6.40;2.85;;;30.60;92.00;;;;;;5048084;28;20033;-78
2022/07/15 07:25:12;;;;;;;6.00;3.20;;;30.40;79.50;;;;;;5051311;28;20032;-79
2022/07/15 07:27:37;;;;;;;5.30;2.17;;;30.50;79.10;;;;;;5052084;28;20021;-77
2022/07/15 07:30:04;;;;;;;5.60;2.38;;;30.50;77.90;;;;;;5051626;28;20494;-79
2022/07/15 07:32:31;;;;;;;11.55;3.50;;;;;;;;;;5051519;28;20475;-78
2022/07/15 07:34:58;;;;;;;7.03;2.90;;;;;;;;;;5051130;28;20028;-78
2022/07/15 07:37:24;;;;;;;8.85;3.45;;;30.70;80.60;;;;;;5051107;28;20087;-78
2022/07/15 07:39:50;;;;;;;7.22;2.85;;;30.70;77.40;;;;;;5053351;28;20033;-77
2022/07/15 07:42:16;;;;;;;5.45;2.22;;;30.60;75.50;;;;;;5051495;28;20475;-79
2022/07/15 07:44:45;;;;;;;6.38;2.28;;;30.60;75.30;;;;;;5050942;28;20493;-79
2022/07/15 07:47:11;;;;;;;7.38;2.83;;;30.40;77.50;;;;;;5048858;28;20098;-79
2022/07/15 07:49:37;;;;;;;6.32;2.90;;;30.40;77.00;;;;;;5052306;28;20368;-79
2022/07/15 07:52:04;;;;;;;5.72;2.72;;;30.20;75.80;;;;;;5051054;28;20120;-69
2022/07/15 07:54:30;;;;;;;9.00;3.50;;;30.70;81.20;;;;;;5052162;28;20033;-78
2022/07/15 07:56:56;;;;;;;4.82;2.38;;;30.60;73.00;;;;;;5053153;28;20037;-78
2022/07/15 07:59:22;;;;;;;6.43;2.83;;;30.70;73.30;;;;;;5052001;28;20025;-79
2022/07/15 08:01:49;;;;;;;4.40;2.72;;;;;;;;;;5050712;28;20132;-79
2022/07/15 08:04:15;;;;;;;8.20;3.10;;;30.70;66.30;;;;;;5047949;28;20082;-75
2022/07/15 08:06:41;;;;;;;4.55;3.05;;;30.70;67.80;;;;;;5051935;28;20029;-78
2022/07/15 08:09:07;;;;;;;7.88;2.78;;;;;;;;;;5051040;28;20025;-78
2022/07/15 08:11:34;;;;;;;10.50;3.75;;;;;;;;;;5051475;28;20459;-78
2022/07/15 08:14:00;;;;;;;4.72;2.97;;;31.30;69.40;;;;;;5052066;28;20032;-79
2022/07/15 08:16:26;;;;;;;8.60;3.72;;;31.30;68.00;;;;;;5049474;28;20028;-75
2022/07/15 08:18:53;;;;;;;14.63;3.63;;;31.20;68.70;;;;;;5052280;28;20104;-79
2022/07/15 08:21:18;;;;;;;8.52;3.70;;;31.20;65.80;;;;;;5051857;28;20029;-78
2022/07/15 08:23:44;;;;;;;8.00;2.92;;;31.20;66.90;;;;;;5051799;28;20121;-76
2022/07/15 08:26:13;;;;;;;8.13;3.30;;;31.60;68.50;;;;;;5051255;28;20383;-78
2022/07/15 08:28:39;;;;;;;5.80;3.28;;;31.60;68.30;;;;;;5053075;28;20506;-79
2022/07/15 08:31:05;;;;;;;7.75;2.92;;;31.60;67.50;;;;;;5052750;28;20017;-76
2022/07/15 08:33:31;;;;;;;6.70;3.30;;;31.60;66.90;;;;;;5052068;28;20404;-78
2022/07/15 08:35:57;;;;;;;14.68;3.40;;;31.60;64.90;;;;;;5033248;28;20033;-79
2022/07/15 08:38:22;;;;;;;5.38;3.35;;;31.60;67.80;;;;;;5052337;28;20150;-79
2022/07/15 08:40:49;;;;;;;7.85;3.10;;;31.90;68.50;;;;;;5052511;28;20095;-79
2022/07/15 08:43:15;;;;;;;8.10;3.42;;;32.20;62.70;;;;;;5053737;28;20048;-79
2022/07/15 08:45:43;;;;;;;8.10;3.08;;;32.00;63.20;;;;;;5052678;28;20017;-78
2022/07/15 08:48:10;;;;;;;5.82;3.20;;;32.20;64.40;;;;;;5052501;28;20033;-80
2022/07/15 08:50:36;;;;;;;5.65;2.80;;;32.00;63.70;;;;;;5053529;28;20096;-79
2022/07/15 08:53:03;;;;;;;8.25;3.13;;;32.20;66.60;;;;;;5052544;28;20029;-80
2022/07/15 08:55:30;;;;;;;9.02;3.55;;;32.20;63.10;;;;;;5056288;28;20033;-79
2022/07/15 08:57:56;;;;;;;8.77;2.95;;;32.40;63.50;;;;;;5058037;28;20024;-79
2022/07/15 09:00:28;;;;;;;10.32;3.30;;;32.40;63.70;;;;;;5060718;28;20479;-79
2022/07/15 09:03:01;;;;;;;11.98;3.58;;;32.70;63.80;;;;;;5064418;28;20064;-79
2022/07/15 09:05:33;;;;;;;11.45;3.20;;;32.90;63.10;;;;;;5068498;28;20031;-78
2022/07/15 09:08:06;;;;;;;10.82;3.25;;;33.00;62.80;;;;;;5060411;28;20450;-76
2022/07/15 09:10:53;;;;;;;11.88;3.42;;;33.00;63.10;;;;;;5055164;28;20032;-78
2022/07/15 09:13:38;;;;;;;10.25;3.90;;;32.90;63.50;;;;;;5055186;28;20124;-77
2022/07/15 09:16:04;;;;;;;8.65;3.35;;;33.20;63.00;;;;;;5057593;28;20067;-79
2022/07/15 09:18:40;;;;;;;8.93;2.75;;;33.20;61.40;;;;;;5056904;28;20013;-79
2022/07/15 09:21:24;;;;;;;10.77;3.50;;;33.20;63.40;;;;;;5055516;28;20052;-77
2022/07/15 09:23:50;;;;;;;10.45;3.95;;;32.90;61.40;;;;;;5055646;28;20119;-79
2022/07/15 09:26:32;;;;;;;7.35;3.10;;;32.80;59.80;;;;;;5055404;28;20021;-79
2022/07/15 09:28:59;;;;;;;9.40;3.92;;;32.90;62.10;;;;;;5055207;28;20037;-79
2022/07/15 09:34:24;;;;;;;4.60;2.65;;;33.30;61.60;;;;;;4994265;28;20074;-79
2022/07/15 09:36:55;;;;;;;2.90;1.90;;;33.60;60.00;;;;;;5000544;28;20034;-76
2022/07/15 09:39:23;;;;;;;5.82;2.50;;;33.50;58.00;;;;;;4956801;28;20118;-75
2022/07/15 09:41:50;;;;;;;9.60;2.78;;;33.30;61.80;;;;;;4987316;28;20611;-76
2022/07/15 09:44:18;;;;;;;7.95;2.63;;;33.40;60.80;;;;;;4992891;28;20038;-72
2022/07/15 09:46:51;;;;;;;6.95;2.20;;;33.50;58.90;;;;;;4993150;28;20034;-75
2022/07/15 09:49:34;;;;;;;4.63;2.50;;;33.30;61.10;;;;;;4992954;28;20038;-73
2022/07/15 09:52:01;;;;;;;4.15;2.30;;;33.50;58.70;;;;;;4990345;28;20042;-72
2022/07/15 09:54:35;;;;;;;6.50;2.30;;;33.30;65.60;;;;;;4992754;28;20030;-72
2022/07/15 09:57:05;;;;;;;3.88;2.15;;;33.20;58.80;;;;;;4991510;28;20031;-71
2022/07/15 09:59:31;;;;;;;6.10;2.42;;;33.30;59.90;;;;;;4986815;28;20035;-74
2022/07/15 10:01:59;;;;;;;5.45;2.42;;;33.40;59.40;;;;;;4991633;28;20049;-73
2022/07/15 10:04:27;;;;;;;10.38;2.05;;;33.30;61.10;;;;;;4990350;28;20050;-70
2022/07/15 10:06:56;;;;;;;4.18;1.80;;;33.10;59.20;;;;;;4992314;28;20034;-75
2022/07/15 10:09:28;;;;;;;3.75;1.88;;;33.30;59.90;;;;;;4991514;28;20041;-72
2022/07/15 10:12:02;;;;;;;7.65;1.92;;;33.30;63.20;;;;;;5022699;28;20177;-75
2022/07/15 10:14:37;;;;;;;2.92;1.73;;;33.30;58.80;;;;;;5038844;28;20104;-69
2022/07/15 10:17:28;;;;;;;1.85;1.70;;;33.10;58.00;;;;;;5040725;28;20025;-75
2022/07/15 10:20:06;;;;;;;7.67;1.53;;;33.40;60.20;;;;;;5037442;28;20104;-75
2022/07/15 10:23:07;;;;;;;5.75;2.05;;;33.30;57.00;;;;;;5045599;28;20257;-74
2022/07/15 10:25:51;;;;;;;2.70;1.30;;;33.20;60.90;;;;;;5039003;28;20479;-74
2022/07/15 10:28:28;;;;;;;4.00;1.80;;;33.30;56.50;;;;;;5050322;28;20033;-70
2022/07/15 10:31:12;;;;;;;5.10;1.60;;;33.40;57.50;;;;;;5052260;28;20033;-70
2022/07/15 10:33:38;;;;;;;3.97;1.80;;;33.40;57.00;;;;;;5051124;28;20028;-75
2022/07/15 10:36:05;;;;;;;3.58;1.80;;;33.30;57.40;;;;;;5052453;28;20017;-75
2022/07/15 10:38:35;;;;;;;3.92;2.20;;;33.30;55.80;;;;;;5049911;28;20025;-75
2022/07/15 10:41:04;;;;;;;3.42;2.17;;;33.30;57.70;;;;;;5052460;28;20387;-76
2022/07/15 10:43:52;;;;;;;2.65;1.88;;;33.60;59.00;;;;;;5051747;28;20049;-75
2022/07/15 10:46:18;;;;;;;3.92;1.85;;;33.30;57.90;;;;;;5050901;28;20748;-76
2022/07/15 10:48:47;;;;;;;7.30;2.08;;;33.50;57.40;;;;;;5051340;28;20033;-73
2022/07/15 10:51:36;;;;;;;3.53;1.77;;;33.40;59.60;;;;;;5052117;28;20029;-75
2022/07/15 10:54:09;;;;;;;4.18;1.95;;;33.30;57.60;;;;;;5047906;28;20502;-75
2022/07/15 10:56:38;;;;;;;12.20;2.15;;;33.40;58.20;;;;;;5052546;28;20060;-74
2022/07/15 10:59:17;;;;;;;5.15;2.28;;;33.30;56.20;;;;;;5052733;28;20080;-75
2022/07/15 11:01:45;;;;;;;5.25;2.17;;;33.50;56.70;;;;;;5052688;28;20445;-74
2022/07/15 11:04:26;;;;;;;5.07;1.90;;;33.80;55.20;;;;;;5052938;28;20037;-76
2022/07/15 11:07:07;;;;;;;4.35;2.88;;;33.70;53.90;;;;;;5051906;28;20086;-75
2022/07/15 11:09:56;;;;;;;9.45;2.28;;;33.80;55.20;;;;;;5052532;28;20025;-73
2022/07/15 11:12:47;;;;;;;4.60;2.10;;;33.60;55.40;;;;;;5052514;28;20128;-74
2022/07/15 11:15:18;;;;;;;1.77;1.63;;;33.60;54.00;;;;;;5052510;28;20033;-74
2022/07/15 11:17:47;;;;;;;6.32;2.25;;;33.90;54.00;;;;;;5052262;28;20099;-75
2022/07/15 11:20:19;;;;;;;2.92;1.73;;;33.70;60.50;;;;;;5052384;28;20032;-74
2022/07/15 11:22:48;;;;;;;4.63;1.92;;;33.70;59.80;;;;;;5049517;28;20029;-75
2022/07/15 11:25:22;;;;;;;5.20;2.05;;;34.00;60.20;;;;;;5050939;28;20102;-75
2022/07/15 11:28:24;;;;;;;4.40;2.00;;;33.90;60.70;;;;;;5051016;28;20513;-75
2022/07/15 11:30:53;;;;;;;3.67;2.13;;;33.90;55.10;;;;;;5029246;28;20041;-76
2022/07/15 11:33:25;;;;;;;4.45;2.00;;;33.90;55.10;;;;;;5029571;28;20496;-73
2022/07/15 11:36:02;;;;;;;3.45;2.33;;;33.90;54.70;;;;;;5030366;28;20064;-75
2022/07/15 11:38:31;;;;;;;5.90;2.60;;;33.90;54.50;;;;;;5028657;28;20049;-74
2022/07/15 11:46:30;;;;;;;8.93;2.67;;;33.80;56.60;;;;;;5029517;28;20396;-75
2022/07/15 11:48:57;;;;;;;7.10;3.10;;;33.70;55.70;;;;;;5029574;28;20485;-74
2022/07/15 11:51:28;;;;;;;6.60;3.03;;;33.80;54.70;;;;;;5029387;28;20496;-72
2022/07/15 11:53:55;;;;;;;5.47;2.77;;;33.60;59.70;;;;;;5029635;28;20578;-77
2022/07/15 11:56:22;;;;;;;8.98;2.95;;;33.80;59.30;;;;;;5029876;28;20112;-75
2022/07/15 11:58:53;;;;;;;5.50;2.95;;;33.90;57.60;;;;;;5030416;28;20049;-76
2022/07/15 12:01:24;;;;;;;5.80;2.85;;;34.00;56.30;;;;;;5029824;28;20053;-77
2022/07/15 12:03:52;;;;;;;2.88;2.05;;;33.80;56.20;;;;;;5032462;28;20049;-76
2022/07/15 12:06:20;;;;;;;5.78;2.70;;;34.00;57.00;;;;;;5053486;28;20082;-76
2022/07/15 12:08:55;;;;;;;7.53;2.83;;;34.30;64.30;;;;;;5044427;28;20032;-75
2022/07/15 12:11:32;;;;;;;6.75;2.75;;;33.90;78.90;;;;;;5045646;28;20025;-77
2022/07/15 12:14:04;;;;;;;5.10;2.40;;;34.20;78.80;;;;;;5052271;28;20025;-76
2022/07/15 12:16:40;;;;;;;2.25;1.98;;;34.10;76.20;;;;;;5052062;28;20495;-76
2022/07/15 12:19:17;;;;;;;5.80;2.47;;;34.10;85.60;;;;;;5051170;28;20025;-77
2022/07/15 12:21:45;;;;;;;4.50;2.47;;;34.20;80.90;;;;;;5043176;28;20560;-75
2022/07/15 12:24:15;;;;;;;6.57;2.28;;;34.30;74.00;;;;;;5046798;28;20025;-77
2022/07/15 12:26:50;;;;;;;4.35;1.95;;;34.30;75.30;;;;;;5034426;28;20525;-77
2022/07/15 12:29:19;;;;;;;4.05;2.17;;;34.20;68.10;;;;;;5056509;28;20029;-75
2022/07/15 12:31:53;;;;;;;4.25;2.25;;;34.20;68.70;;;;;;5055844;28;20440;-76
2022/07/15 12:34:19;;;;;;;4.00;1.90;;;34.20;68.90;;;;;;5056358;28;20490;-76
2022/07/15 12:36:55;;;;;;;6.28;2.20;;;34.20;69.00;;;;;;5055873;28;20013;-78
2022/07/15 12:39:21;;;;;;;5.05;2.92;;;34.10;67.90;;;;;;5037735;28;20380;-77
2022/07/15 12:42:02;;;;;;;4.82;2.28;;;34.10;69.70;;;;;;5049827;28;20392;-76
2022/07/15 12:44:30;;;;;;;12.07;2.85;;;;;;;;;;5049862;28;20106;-76
2022/07/15 12:47:15;;;;;;;3.00;2.20;;;34.10;79.70;;;;;;5056274;28;20089;-76
2022/07/15 12:49:51;;;;;;;4.00;2.10;;;34.10;77.10;;;;;;5055529;28;20037;-77
2022/07/15 12:52:22;;;;;;;3.85;2.25;;;34.10;76.20;;;;;;5055428;28;20072;-76
2022/07/15 12:54:51;;;;;;;5.40;2.42;;;34.10;76.20;;;;;;5055634;28;20387;-75
2022/07/15 12:57:20;;;;;;;5.32;2.40;;;34.20;75.50;;;;;;5055359;28;20632;-75
2022/07/15 12:59:54;;;;;;;5.32;2.30;;;34.20;72.70;;;;;;5055358;28;20398;-76
2022/07/15 13:02:20;;;;;;;3.55;2.30;;;34.10;70.80;;;;;;5055570;28;20053;-76
2022/07/15 13:04:46;;;;;;;4.68;2.50;;;34.10;71.60;;;;;;5054978;28;20047;-77
2022/07/15 13:07:12;;;;;;;5.97;2.10;;;34.50;74.40;;;;;;5048938;28;20025;-76
2022/07/15 13:09:38;;;;;;;3.33;2.17;;;;;;;;;;5048303;28;20036;-76
2022/07/15 13:12:04;;;;;;;4.70;2.38;;;;;;;;;;5032733;28;20403;-78